sensor_id;sensor_type;location;lat;lon;timestamp;P1;durP1;ratioP1;P2;durP2;ratioP2
4001;SDS011;2015;48.670;9.060;2023-09-30T00:01:08;179.97;;;173.27;;
4001;SDS011;2015;48.670;9.060;2023-09-30T00:03:41;197.93;;;190.17;;
4001;SDS011;2015;48.670;9.060;2023-09-30T00:06:13;445.63;;;423.67;;
4001;SDS011;2015;48.670;9.060;2023-09-30T00:08:44;370.37;;;353.43;;
4001;SDS011;2015;48.670;9.060;2023-09-30T00:11:17;291.73;;;279.17;;
4001;SDS011;2015;48.670;9.060;2023-09-30T00:13:49;525.33;;;497.17;;
4001;SDS011;2015;48.670;9.060;2023-09-30T00:16:21;608.75;;;575.50;;
4001;SDS011;2015;48.670;9.060;2023-09-30T00:18:53;497.57;;;471.23;;
4001;SDS011;2015;48.670;9.060;2023-09-30T00:21:25;177.43;;;170.23;;
4001;SDS011;2015;48.670;9.060;2023-09-30T00:23:57;298.73;;;286.23;;
4001;SDS011;2015;48.670;9.060;2023-09-30T00:26:29;428.23;;;407.07;;
4001;SDS011;2015;48.670;9.060;2023-09-30T00:29:00;518.53;;;491.03;;
4001;SDS011;2015;48.670;9.060;2023-09-30T00:31:35;429.30;;;408.13;;
4001;SDS011;2015;48.670;9.060;2023-09-30T00:34:07;500.95;;;476.65;;
4001;SDS011;2015;48.670;9.060;2023-09-30T00:36:39;95.73;;;91.90;;
4001;SDS011;2015;48.670;9.060;2023-09-30T00:39:11;461.03;;;438.10;;
4001;SDS011;2015;48.670;9.060;2023-09-30T00:41:43;164.53;;;157.97;;
4001;SDS011;2015;48.670;9.060;2023-09-30T00:44:15;533.00;;;504.37;;
4001;SDS011;2015;48.670;9.060;2023-09-30T00:46:47;532.97;;;504.27;;
4001;SDS011;2015;48.670;9.060;2023-09-30T00:49:19;28.93;;;27.63;;
4001;SDS011;2015;48.670;9.060;2023-09-30T00:51:51;27.43;;;26.13;;
4001;SDS011;2015;48.670;9.060;2023-09-30T00:54:23;29.07;;;27.57;;
4001;SDS011;2015;48.670;9.060;2023-09-30T00:56:57;42.53;;;40.43;;
4001;SDS011;2015;48.670;9.060;2023-09-30T00:59:31;99.63;;;95.70;;
4001;SDS011;2015;48.670;9.060;2023-09-30T01:02:03;75.40;;;72.33;;
4001;SDS011;2015;48.670;9.060;2023-09-30T01:04:37;123.13;;;117.97;;
4001;SDS011;2015;48.670;9.060;2023-09-30T01:07:09;46.70;;;44.63;;
4001;SDS011;2015;48.670;9.060;2023-09-30T01:09:42;147.70;;;142.33;;
4001;SDS011;2015;48.670;9.060;2023-09-30T01:12:15;11.70;;;11.10;;
4001;SDS011;2015;48.670;9.060;2023-09-30T01:14:47;47.50;;;45.87;;
4001;SDS011;2015;48.670;9.060;2023-09-30T01:17:19;34.20;;;32.50;;
4001;SDS011;2015;48.670;9.060;2023-09-30T01:19:51;11.27;;;6.73;;
4001;SDS011;2015;48.670;9.060;2023-09-30T01:22:23;72.37;;;69.60;;
4001;SDS011;2015;48.670;9.060;2023-09-30T01:24:55;6.10;;;3.90;;
4001;SDS011;2015;48.670;9.060;2023-09-30T01:27:27;5.73;;;4.80;;
4001;SDS011;2015;48.670;9.060;2023-09-30T01:29:59;17.60;;;16.50;;
4001;SDS011;2015;48.670;9.060;2023-09-30T01:32:31;7.83;;;5.73;;
4001;SDS011;2015;48.670;9.060;2023-09-30T01:35:03;5.97;;;4.83;;
4001;SDS011;2015;48.670;9.060;2023-09-30T01:37:35;5.90;;;5.50;;
4001;SDS011;2015;48.670;9.060;2023-09-30T01:40:07;6.00;;;4.40;;
4001;SDS011;2015;48.670;9.060;2023-09-30T01:42:39;68.13;;;65.50;;
4001;SDS011;2015;48.670;9.060;2023-09-30T01:45:11;5.27;;;3.93;;
4001;SDS011;2015;48.670;9.060;2023-09-30T01:47:43;13.20;;;12.40;;
4001;SDS011;2015;48.670;9.060;2023-09-30T01:50:15;10.47;;;9.57;;
4001;SDS011;2015;48.670;9.060;2023-09-30T01:52:46;75.83;;;72.87;;
4001;SDS011;2015;48.670;9.060;2023-09-30T01:55:18;6.73;;;4.27;;
4001;SDS011;2015;48.670;9.060;2023-09-30T01:57:50;6.40;;;4.28;;
4001;SDS011;2015;48.670;9.060;2023-09-30T02:00:22;6.17;;;5.57;;
4001;SDS011;2015;48.670;9.060;2023-09-30T02:02:56;5.77;;;5.27;;
4001;SDS011;2015;48.670;9.060;2023-09-30T02:05:28;221.47;;;213.10;;
4001;SDS011;2015;48.670;9.060;2023-09-30T02:08:00;7.63;;;7.07;;
4001;SDS011;2015;48.670;9.060;2023-09-30T02:10:37;9.60;;;9.00;;
4001;SDS011;2015;48.670;9.060;2023-09-30T02:13:08;4.63;;;4.30;;
4001;SDS011;2015;48.670;9.060;2023-09-30T02:15:40;5.90;;;5.13;;
4001;SDS011;2015;48.670;9.060;2023-09-30T02:18:12;78.43;;;75.63;;
4001;SDS011;2015;48.670;9.060;2023-09-30T02:20:46;415.37;;;394.30;;
4001;SDS011;2015;48.670;9.060;2023-09-30T02:23:17;532.70;;;502.10;;
4001;SDS011;2015;48.670;9.060;2023-09-30T02:25:50;157.87;;;151.87;;
4001;SDS011;2015;48.670;9.060;2023-09-30T02:28:21;32.77;;;31.03;;
4001;SDS011;2015;48.670;9.060;2023-09-30T02:30:53;34.10;;;32.37;;
4001;SDS011;2015;48.670;9.060;2023-09-30T02:33:25;13.57;;;12.97;;
4001;SDS011;2015;48.670;9.060;2023-09-30T02:35:57;493.13;;;464.73;;
4001;SDS011;2015;48.670;9.060;2023-09-30T02:38:29;106.40;;;102.20;;
4001;SDS011;2015;48.670;9.060;2023-09-30T02:41:01;144.57;;;139.17;;
4001;SDS011;2015;48.670;9.060;2023-09-30T02:43:34;585.93;;;546.27;;
4001;SDS011;2015;48.670;9.060;2023-09-30T02:46:05;549.27;;;513.37;;
4001;SDS011;2015;48.670;9.060;2023-09-30T02:48:37;211.43;;;203.33;;
4001;SDS011;2015;48.670;9.060;2023-09-30T02:51:09;25.67;;;24.57;;
4001;SDS011;2015;48.670;9.060;2023-09-30T02:53:42;54.63;;;52.20;;
4001;SDS011;2015;48.670;9.060;2023-09-30T02:56:14;29.77;;;28.67;;
4001;SDS011;2015;48.670;9.060;2023-09-30T02:58:46;54.30;;;52.30;;
4001;SDS011;2015;48.670;9.060;2023-09-30T03:01:17;71.33;;;68.73;;
4001;SDS011;2015;48.670;9.060;2023-09-30T03:03:52;351.65;;;335.63;;
4001;SDS011;2015;48.670;9.060;2023-09-30T03:06:24;144.97;;;138.97;;
4001;SDS011;2015;48.670;9.060;2023-09-30T03:08:56;9.63;;;8.77;;
4001;SDS011;2015;48.670;9.060;2023-09-30T03:11:27;133.80;;;128.40;;
4001;SDS011;2015;48.670;9.060;2023-09-30T03:14:00;198.37;;;190.57;;
4001;SDS011;2015;48.670;9.060;2023-09-30T03:16:32;355.77;;;338.93;;
4001;SDS011;2015;48.670;9.060;2023-09-30T03:19:05;225.07;;;215.70;;
4001;SDS011;2015;48.670;9.060;2023-09-30T03:21:37;33.13;;;31.40;;
4001;SDS011;2015;48.670;9.060;2023-09-30T03:24:08;32.33;;;30.53;;
4001;SDS011;2015;48.670;9.060;2023-09-30T03:26:40;372.63;;;355.13;;
4001;SDS011;2015;48.670;9.060;2023-09-30T03:29:12;335.37;;;320.07;;
4001;SDS011;2015;48.670;9.060;2023-09-30T03:31:45;21.50;;;20.37;;
4001;SDS011;2015;48.670;9.060;2023-09-30T03:34:16;47.97;;;46.17;;
4001;SDS011;2015;48.670;9.060;2023-09-30T03:36:48;7.80;;;7.20;;
4001;SDS011;2015;48.670;9.060;2023-09-30T03:39:20;197.63;;;190.55;;
4001;SDS011;2015;48.670;9.060;2023-09-30T03:41:58;69.07;;;66.13;;
4001;SDS011;2015;48.670;9.060;2023-09-30T03:44:30;68.47;;;65.93;;
4001;SDS011;2015;48.670;9.060;2023-09-30T03:47:02;455.37;;;431.73;;
4001;SDS011;2015;48.670;9.060;2023-09-30T03:49:34;109.03;;;105.13;;
4001;SDS011;2015;48.670;9.060;2023-09-30T03:52:05;505.70;;;477.77;;
4001;SDS011;2015;48.670;9.060;2023-09-30T03:54:37;476.58;;;454.15;;
4001;SDS011;2015;48.670;9.060;2023-09-30T03:57:09;8.87;;;8.33;;
4001;SDS011;2015;48.670;9.060;2023-09-30T03:59:43;12.43;;;10.50;;
4001;SDS011;2015;48.670;9.060;2023-09-30T04:02:17;6.20;;;5.80;;
4001;SDS011;2015;48.670;9.060;2023-09-30T04:04:50;7.30;;;6.90;;
4001;SDS011;2015;48.670;9.060;2023-09-30T04:07:24;24.10;;;23.00;;
4001;SDS011;2015;48.670;9.060;2023-09-30T04:09:58;36.40;;;34.77;;
4001;SDS011;2015;48.670;9.060;2023-09-30T04:12:32;23.43;;;22.13;;
4001;SDS011;2015;48.670;9.060;2023-09-30T04:15:04;9.40;;;8.70;;
4001;SDS011;2015;48.670;9.060;2023-09-30T04:17:36;19.80;;;19.10;;
4001;SDS011;2015;48.670;9.060;2023-09-30T04:20:09;12.63;;;10.90;;
4001;SDS011;2015;48.670;9.060;2023-09-30T04:22:47;65.40;;;63.00;;
4001;SDS011;2015;48.670;9.060;2023-09-30T04:25:20;38.80;;;36.93;;
4001;SDS011;2015;48.670;9.060;2023-09-30T04:27:53;33.23;;;31.33;;
4001;SDS011;2015;48.670;9.060;2023-09-30T04:30:25;34.00;;;32.47;;
4001;SDS011;2015;48.670;9.060;2023-09-30T04:32:57;459.33;;;435.20;;
4001;SDS011;2015;48.670;9.060;2023-09-30T04:35:29;185.57;;;178.33;;
4001;SDS011;2015;48.670;9.060;2023-09-30T04:38:02;485.10;;;458.80;;
4001;SDS011;2015;48.670;9.060;2023-09-30T04:40:35;42.83;;;40.27;;
4001;SDS011;2015;48.670;9.060;2023-09-30T04:43:07;113.37;;;108.90;;
4001;SDS011;2015;48.670;9.060;2023-09-30T04:45:38;627.17;;;593.50;;
4001;SDS011;2015;48.670;9.060;2023-09-30T04:48:11;25.67;;;24.43;;
4001;SDS011;2015;48.670;9.060;2023-09-30T04:50:43;17.63;;;16.73;;
4001;SDS011;2015;48.670;9.060;2023-09-30T04:53:15;104.20;;;100.07;;
4001;SDS011;2015;48.670;9.060;2023-09-30T04:55:50;79.00;;;76.07;;
4001;SDS011;2015;48.670;9.060;2023-09-30T04:58:21;21.37;;;20.20;;
4001;SDS011;2015;48.670;9.060;2023-09-30T05:00:56;24.77;;;23.67;;
4001;SDS011;2015;48.670;9.060;2023-09-30T05:03:28;34.67;;;32.77;;
4001;SDS011;2015;48.670;9.060;2023-09-30T05:06:01;69.33;;;66.37;;
4001;SDS011;2015;48.670;9.060;2023-09-30T05:08:34;348.23;;;332.30;;
4001;SDS011;2015;48.670;9.060;2023-09-30T05:11:05;91.10;;;87.90;;
4001;SDS011;2015;48.670;9.060;2023-09-30T05:13:37;58.27;;;56.03;;
4001;SDS011;2015;48.670;9.060;2023-09-30T05:16:09;94.80;;;91.10;;
4001;SDS011;2015;48.670;9.060;2023-09-30T05:18:41;380.33;;;363.35;;
4001;SDS011;2015;48.670;9.060;2023-09-30T05:21:13;198.90;;;191.40;;
4001;SDS011;2015;48.670;9.060;2023-09-30T05:23:44;404.87;;;384.93;;
4001;SDS011;2015;48.670;9.060;2023-09-30T05:26:17;46.90;;;45.00;;
4001;SDS011;2015;48.670;9.060;2023-09-30T05:28:49;25.93;;;24.60;;
4001;SDS011;2015;48.670;9.060;2023-09-30T05:31:20;36.17;;;34.33;;
4001;SDS011;2015;48.670;9.060;2023-09-30T05:33:53;25.17;;;23.73;;
4001;SDS011;2015;48.670;9.060;2023-09-30T05:36:24;46.80;;;44.77;;
4001;SDS011;2015;48.670;9.060;2023-09-30T05:38:56;47.30;;;44.87;;
4001;SDS011;2015;48.670;9.060;2023-09-30T05:41:28;104.40;;;100.50;;
4001;SDS011;2015;48.670;9.060;2023-09-30T05:44:00;99.63;;;95.60;;
4001;SDS011;2015;48.670;9.060;2023-09-30T05:46:32;77.60;;;74.37;;
4001;SDS011;2015;48.670;9.060;2023-09-30T05:49:04;277.90;;;265.10;;
4001;SDS011;2015;48.670;9.060;2023-09-30T05:51:41;73.53;;;70.80;;
4001;SDS011;2015;48.670;9.060;2023-09-30T05:54:13;463.10;;;436.43;;
4001;SDS011;2015;48.670;9.060;2023-09-30T05:56:45;513.40;;;483.00;;
4001;SDS011;2015;48.670;9.060;2023-09-30T05:59:16;572.10;;;532.17;;
4001;SDS011;2015;48.670;9.060;2023-09-30T06:01:48;257.17;;;245.80;;
4001;SDS011;2015;48.670;9.060;2023-09-30T06:04:20;429.10;;;406.47;;
4001;SDS011;2015;48.670;9.060;2023-09-30T06:06:52;479.50;;;453.10;;
4001;SDS011;2015;48.670;9.060;2023-09-30T06:09:24;308.70;;;296.90;;
4001;SDS011;2015;48.670;9.060;2023-09-30T06:11:56;681.83;;;635.63;;
4001;SDS011;2015;48.670;9.060;2023-09-30T06:14:28;630.57;;;586.33;;
4001;SDS011;2015;48.670;9.060;2023-09-30T06:17:02;282.90;;;270.80;;
4001;SDS011;2015;48.670;9.060;2023-09-30T06:19:33;252.53;;;242.13;;
4001;SDS011;2015;48.670;9.060;2023-09-30T06:22:05;204.80;;;196.97;;
4001;SDS011;2015;48.670;9.060;2023-09-30T06:24:37;171.27;;;164.73;;
4001;SDS011;2015;48.670;9.060;2023-09-30T06:27:08;85.13;;;81.88;;
4001;SDS011;2015;48.670;9.060;2023-09-30T06:29:44;197.33;;;190.13;;
4001;SDS011;2015;48.670;9.060;2023-09-30T06:32:17;417.30;;;397.47;;
4001;SDS011;2015;48.670;9.060;2023-09-30T06:34:49;207.00;;;198.90;;
4001;SDS011;2015;48.670;9.060;2023-09-30T06:37:21;139.00;;;133.67;;
4001;SDS011;2015;48.670;9.060;2023-09-30T06:39:53;537.93;;;508.17;;
4001;SDS011;2015;48.670;9.060;2023-09-30T06:42:25;395.13;;;376.47;;
4001;SDS011;2015;48.670;9.060;2023-09-30T06:44:57;312.00;;;298.73;;
4001;SDS011;2015;48.670;9.060;2023-09-30T06:47:29;298.43;;;286.03;;
4001;SDS011;2015;48.670;9.060;2023-09-30T06:50:07;298.93;;;286.73;;
4001;SDS011;2015;48.670;9.060;2023-09-30T06:52:41;372.20;;;354.10;;
4001;SDS011;2015;48.670;9.060;2023-09-30T06:55:14;553.87;;;523.57;;
4001;SDS011;2015;48.670;9.060;2023-09-30T06:57:45;316.57;;;303.03;;
4001;SDS011;2015;48.670;9.060;2023-09-30T07:00:18;258.60;;;248.87;;
4001;SDS011;2015;48.670;9.060;2023-09-30T07:02:50;297.10;;;285.33;;
4001;SDS011;2015;48.670;9.060;2023-09-30T07:05:21;328.13;;;314.57;;
4001;SDS011;2015;48.670;9.060;2023-09-30T07:07:53;276.53;;;265.70;;
4001;SDS011;2015;48.670;9.060;2023-09-30T07:10:25;469.57;;;446.57;;
4001;SDS011;2015;48.670;9.060;2023-09-30T07:12:57;641.13;;;603.70;;
4001;SDS011;2015;48.670;9.060;2023-09-30T07:15:29;597.05;;;565.13;;
4001;SDS011;2015;48.670;9.060;2023-09-30T07:18:01;486.13;;;462.20;;
4001;SDS011;2015;48.670;9.060;2023-09-30T07:20:33;509.30;;;482.33;;
4001;SDS011;2015;48.670;9.060;2023-09-30T07:23:05;396.57;;;378.07;;
4001;SDS011;2015;48.670;9.060;2023-09-30T07:25:49;380.13;;;362.70;;
4001;SDS011;2015;48.670;9.060;2023-09-30T07:28:21;349.00;;;333.10;;
4001;SDS011;2015;48.670;9.060;2023-09-30T07:30:52;356.33;;;341.00;;
4001;SDS011;2015;48.670;9.060;2023-09-30T07:33:26;244.98;;;235.95;;
4001;SDS011;2015;48.670;9.060;2023-09-30T07:35:57;372.57;;;356.57;;
4001;SDS011;2015;48.670;9.060;2023-09-30T07:38:29;317.23;;;304.43;;
4001;SDS011;2015;48.670;9.060;2023-09-30T07:41:01;348.33;;;333.43;;
4001;SDS011;2015;48.670;9.060;2023-09-30T07:43:34;394.50;;;376.87;;
4001;SDS011;2015;48.670;9.060;2023-09-30T07:46:06;349.33;;;333.83;;
4001;SDS011;2015;48.670;9.060;2023-09-30T07:48:38;509.87;;;484.50;;
4001;SDS011;2015;48.670;9.060;2023-09-30T07:51:11;398.53;;;380.50;;
4001;SDS011;2015;48.670;9.060;2023-09-30T07:53:44;452.27;;;430.67;;
4001;SDS011;2015;48.670;9.060;2023-09-30T07:56:16;550.10;;;521.20;;
4001;SDS011;2015;48.670;9.060;2023-09-30T07:58:48;608.07;;;575.63;;
4001;SDS011;2015;48.670;9.060;2023-09-30T08:01:19;595.70;;;564.33;;
4001;SDS011;2015;48.670;9.060;2023-09-30T08:03:52;505.07;;;480.23;;
4001;SDS011;2015;48.670;9.060;2023-09-30T08:06:24;433.23;;;413.30;;
4001;SDS011;2015;48.670;9.060;2023-09-30T08:08:56;441.13;;;420.63;;
4001;SDS011;2015;48.670;9.060;2023-09-30T08:11:28;590.07;;;558.70;;
4001;SDS011;2015;48.670;9.060;2023-09-30T08:14:02;362.23;;;346.63;;
4001;SDS011;2015;48.670;9.060;2023-09-30T08:16:37;397.23;;;379.90;;
4001;SDS011;2015;48.670;9.060;2023-09-30T08:19:09;454.63;;;433.13;;
4001;SDS011;2015;48.670;9.060;2023-09-30T08:21:41;732.57;;;690.50;;
4001;SDS011;2015;48.670;9.060;2023-09-30T08:24:13;765.83;;;721.43;;
4001;SDS011;2015;48.670;9.060;2023-09-30T08:26:45;769.07;;;724.07;;
4001;SDS011;2015;48.670;9.060;2023-09-30T08:29:16;771.97;;;727.13;;
4001;SDS011;2015;48.670;9.060;2023-09-30T08:31:48;759.57;;;715.03;;
4001;SDS011;2015;48.670;9.060;2023-09-30T08:34:22;415.23;;;396.83;;
4001;SDS011;2015;48.670;9.060;2023-09-30T08:36:55;430.03;;;410.90;;
4001;SDS011;2015;48.670;9.060;2023-09-30T08:39:28;448.03;;;427.43;;
4001;SDS011;2015;48.670;9.060;2023-09-30T08:42:00;228.30;;;219.93;;
4001;SDS011;2015;48.670;9.060;2023-09-30T08:44:33;368.03;;;352.43;;
4001;SDS011;2015;48.670;9.060;2023-09-30T08:47:06;370.50;;;354.87;;
4001;SDS011;2015;48.670;9.060;2023-09-30T08:49:41;292.70;;;280.93;;
4001;SDS011;2015;48.670;9.060;2023-09-30T08:52:15;203.13;;;195.73;;
4001;SDS011;2015;48.670;9.060;2023-09-30T08:54:48;331.90;;;318.40;;
4001;SDS011;2015;48.670;9.060;2023-09-30T08:57:20;307.87;;;295.60;;
4001;SDS011;2015;48.670;9.060;2023-09-30T08:59:52;673.73;;;635.90;;
4001;SDS011;2015;48.670;9.060;2023-09-30T09:02:24;630.90;;;596.23;;
4001;SDS011;2015;48.670;9.060;2023-09-30T09:04:58;299.73;;;287.73;;
4001;SDS011;2015;48.670;9.060;2023-09-30T09:07:31;310.80;;;298.47;;
4001;SDS011;2015;48.670;9.060;2023-09-30T09:10:05;310.33;;;298.30;;
4001;SDS011;2015;48.670;9.060;2023-09-30T09:12:41;327.77;;;314.67;;
4001;SDS011;2015;48.670;9.060;2023-09-30T09:15:20;236.55;;;227.60;;
4001;SDS011;2015;48.670;9.060;2023-09-30T09:17:55;396.67;;;379.03;;
4001;SDS011;2015;48.670;9.060;2023-09-30T09:20:27;286.07;;;275.10;;
4001;SDS011;2015;48.670;9.060;2023-09-30T09:22:59;250.07;;;240.43;;
4001;SDS011;2015;48.670;9.060;2023-09-30T09:25:33;338.07;;;323.93;;
4001;SDS011;2015;48.670;9.060;2023-09-30T09:28:10;322.70;;;309.87;;
4001;SDS011;2015;48.670;9.060;2023-09-30T09:30:42;396.75;;;379.42;;
4001;SDS011;2015;48.670;9.060;2023-09-30T09:33:14;554.87;;;526.17;;
4001;SDS011;2015;48.670;9.060;2023-09-30T09:35:48;645.50;;;609.77;;
4001;SDS011;2015;48.670;9.060;2023-09-30T09:38:20;888.03;;;836.77;;
4001;SDS011;2015;48.670;9.060;2023-09-30T09:40:51;694.27;;;653.37;;
4001;SDS011;2015;48.670;9.060;2023-09-30T09:43:30;860.50;;;810.57;;
4001;SDS011;2015;48.670;9.060;2023-09-30T09:46:05;968.67;;;912.97;;
4001;SDS011;2015;48.670;9.060;2023-09-30T09:48:39;643.00;;;604.23;;
4001;SDS011;2015;48.670;9.060;2023-09-30T09:51:11;772.50;;;724.63;;
4001;SDS011;2015;48.670;9.060;2023-09-30T09:53:44;1089.23;;;999.90;;
4001;SDS011;2015;48.670;9.060;2023-09-30T09:56:16;1009.92;;;949.88;;
4001;SDS011;2015;48.670;9.060;2023-09-30T09:58:49;914.55;;;858.17;;
4001;SDS011;2015;48.670;9.060;2023-09-30T10:01:21;926.45;;;868.80;;
4001;SDS011;2015;48.670;9.060;2023-09-30T10:03:53;746.38;;;698.15;;
4001;SDS011;2015;48.670;9.060;2023-09-30T10:06:25;708.70;;;662.97;;
4001;SDS011;2015;48.670;9.060;2023-09-30T10:08:57;851.90;;;797.67;;
4001;SDS011;2015;48.670;9.060;2023-09-30T10:11:30;725.80;;;678.63;;
4001;SDS011;2015;48.670;9.060;2023-09-30T10:14:04;694.47;;;649.28;;
4001;SDS011;2015;48.670;9.060;2023-09-30T10:19:23;689.95;;;646.85;;
4001;SDS011;2015;48.670;9.060;2023-09-30T10:24:55;577.80;;;545.17;;
4001;SDS011;2015;48.670;9.060;2023-09-30T10:27:28;583.67;;;550.77;;
4001;SDS011;2015;48.670;9.060;2023-09-30T10:30:06;715.87;;;671.03;;
4001;SDS011;2015;48.670;9.060;2023-09-30T10:41:02;864.07;;;812.40;;
4001;SDS011;2015;48.670;9.060;2023-09-30T10:43:34;894.00;;;841.70;;
4001;SDS011;2015;48.670;9.060;2023-09-30T10:49:10;981.93;;;924.80;;
4001;SDS011;2015;48.670;9.060;2023-09-30T10:52:02;941.10;;;886.67;;
4001;SDS011;2015;48.670;9.060;2023-09-30T10:54:35;948.60;;;894.10;;
4001;SDS011;2015;48.670;9.060;2023-09-30T10:57:06;480.27;;;455.53;;
4001;SDS011;2015;48.670;9.060;2023-09-30T10:59:41;646.13;;;608.83;;
4001;SDS011;2015;48.670;9.060;2023-09-30T11:02:19;585.97;;;553.77;;
4001;SDS011;2015;48.670;9.060;2023-09-30T11:04:52;576.03;;;545.20;;
4001;SDS011;2015;48.670;9.060;2023-09-30T11:07:24;583.03;;;551.73;;
4001;SDS011;2015;48.670;9.060;2023-09-30T11:10:00;615.73;;;581.63;;
4001;SDS011;2015;48.670;9.060;2023-09-30T11:12:34;588.53;;;556.60;;
4001;SDS011;2015;48.670;9.060;2023-09-30T11:15:07;631.73;;;596.07;;
4001;SDS011;2015;48.670;9.060;2023-09-30T11:17:41;617.10;;;582.20;;
4001;SDS011;2015;48.670;9.060;2023-09-30T11:20:12;615.87;;;581.23;;
4001;SDS011;2015;48.670;9.060;2023-09-30T11:22:46;593.50;;;560.27;;
4001;SDS011;2015;48.670;9.060;2023-09-30T11:25:18;546.73;;;517.63;;
4001;SDS011;2015;48.670;9.060;2023-09-30T11:27:50;438.60;;;417.60;;
4001;SDS011;2015;48.670;9.060;2023-09-30T11:30:22;396.38;;;377.65;;
4001;SDS011;2015;48.670;9.060;2023-09-30T11:32:58;548.57;;;518.07;;
4001;SDS011;2015;48.670;9.060;2023-09-30T11:35:31;564.23;;;533.40;;
4001;SDS011;2015;48.670;9.060;2023-09-30T11:38:03;602.80;;;568.97;;
4001;SDS011;2015;48.670;9.060;2023-09-30T11:40:35;630.13;;;594.10;;
4001;SDS011;2015;48.670;9.060;2023-09-30T11:43:07;589.70;;;557.30;;
4001;SDS011;2015;48.670;9.060;2023-09-30T11:45:40;647.77;;;610.73;;
4001;SDS011;2015;48.670;9.060;2023-09-30T11:48:18;892.97;;;840.73;;
4001;SDS011;2015;48.670;9.060;2023-09-30T11:50:51;644.77;;;607.93;;
4001;SDS011;2015;48.670;9.060;2023-09-30T11:53:24;666.53;;;627.90;;
4001;SDS011;2015;48.670;9.060;2023-09-30T11:55:59;977.13;;;920.93;;
4001;SDS011;2015;48.670;9.060;2023-09-30T11:58:33;869.27;;;818.37;;
4001;SDS011;2015;48.670;9.060;2023-09-30T12:01:05;797.77;;;750.37;;
4001;SDS011;2015;48.670;9.060;2023-09-30T12:03:38;1051.18;;;989.97;;
4001;SDS011;2015;48.670;9.060;2023-09-30T12:06:11;1050.67;;;987.57;;
4001;SDS011;2015;48.670;9.060;2023-09-30T12:08:44;966.17;;;909.80;;
4001;SDS011;2015;48.670;9.060;2023-09-30T12:11:16;989.63;;;932.00;;
4001;SDS011;2015;48.670;9.060;2023-09-30T12:13:51;1014.93;;;954.57;;
4001;SDS011;2015;48.670;9.060;2023-09-30T12:16:23;1023.93;;;963.90;;
4001;SDS011;2015;48.670;9.060;2023-09-30T12:18:55;896.67;;;844.37;;
4001;SDS011;2015;48.670;9.060;2023-09-30T12:21:27;996.60;;;938.23;;
4001;SDS011;2015;48.670;9.060;2023-09-30T12:24:03;1003.70;;;943.10;;
4001;SDS011;2015;48.670;9.060;2023-09-30T12:26:35;995.70;;;936.73;;
4001;SDS011;2015;48.670;9.060;2023-09-30T12:29:09;913.90;;;860.80;;
4001;SDS011;2015;48.670;9.060;2023-09-30T12:31:41;771.83;;;725.63;;
4001;SDS011;2015;48.670;9.060;2023-09-30T12:34:24;795.73;;;748.03;;
4001;SDS011;2015;48.670;9.060;2023-09-30T12:36:57;684.58;;;644.35;;
4001;SDS011;2015;48.670;9.060;2023-09-30T12:39:30;774.37;;;728.43;;
4001;SDS011;2015;48.670;9.060;2023-09-30T12:42:04;619.33;;;584.83;;
4001;SDS011;2015;48.670;9.060;2023-09-30T12:44:40;864.27;;;813.60;;
4001;SDS011;2015;48.670;9.060;2023-09-30T12:47:13;871.33;;;820.40;;
4001;SDS011;2015;48.670;9.060;2023-09-30T12:49:44;899.97;;;846.57;;
4001;SDS011;2015;48.670;9.060;2023-09-30T12:52:16;930.67;;;876.00;;
4001;SDS011;2015;48.670;9.060;2023-09-30T12:54:48;908.50;;;855.83;;
4001;SDS011;2015;48.670;9.060;2023-09-30T12:57:19;712.77;;;672.13;;
4001;SDS011;2015;48.670;9.060;2023-09-30T12:59:51;723.67;;;681.27;;
4001;SDS011;2015;48.670;9.060;2023-09-30T13:02:24;636.83;;;601.43;;
4001;SDS011;2015;48.670;9.060;2023-09-30T13:04:56;615.00;;;581.30;;
4001;SDS011;2015;48.670;9.060;2023-09-30T13:07:29;637.63;;;602.93;;
4001;SDS011;2015;48.670;9.060;2023-09-30T13:10:00;674.43;;;636.23;;
4001;SDS011;2015;48.670;9.060;2023-09-30T13:12:33;526.97;;;499.73;;
4001;SDS011;2015;48.670;9.060;2023-09-30T13:15:05;570.10;;;540.20;;
4001;SDS011;2015;48.670;9.060;2023-09-30T13:17:37;743.03;;;699.90;;
4001;SDS011;2015;48.670;9.060;2023-09-30T13:20:09;757.50;;;712.70;;
4001;SDS011;2015;48.670;9.060;2023-09-30T13:22:42;695.37;;;655.60;;
4001;SDS011;2015;48.670;9.060;2023-09-30T13:25:14;770.50;;;724.87;;
4001;SDS011;2015;48.670;9.060;2023-09-30T13:27:46;318.20;;;305.15;;
4001;SDS011;2015;48.670;9.060;2023-09-30T13:30:18;774.27;;;727.70;;
4001;SDS011;2015;48.670;9.060;2023-09-30T13:32:50;575.00;;;544.37;;
4001;SDS011;2015;48.670;9.060;2023-09-30T13:35:22;745.63;;;703.30;;
4001;SDS011;2015;48.670;9.060;2023-09-30T13:37:54;771.23;;;725.57;;
4001;SDS011;2015;48.670;9.060;2023-09-30T13:40:25;645.30;;;610.67;;
4001;SDS011;2015;48.670;9.060;2023-09-30T13:42:57;701.63;;;660.83;;
4001;SDS011;2015;48.670;9.060;2023-09-30T13:45:30;860.20;;;808.30;;
4001;SDS011;2015;48.670;9.060;2023-09-30T13:48:02;886.23;;;833.77;;
4001;SDS011;2015;48.670;9.060;2023-09-30T13:50:34;839.70;;;789.63;;
4001;SDS011;2015;48.670;9.060;2023-09-30T13:53:06;556.53;;;527.37;;
4001;SDS011;2015;48.670;9.060;2023-09-30T13:55:38;533.83;;;506.63;;
4001;SDS011;2015;48.670;9.060;2023-09-30T13:58:11;537.87;;;510.57;;
4001;SDS011;2015;48.670;9.060;2023-09-30T14:00:46;639.05;;;603.22;;
4001;SDS011;2015;48.670;9.060;2023-09-30T14:03:19;655.07;;;618.23;;
4001;SDS011;2015;48.670;9.060;2023-09-30T14:05:51;670.80;;;632.60;;
4001;SDS011;2015;48.670;9.060;2023-09-30T14:08:24;755.77;;;711.50;;
4001;SDS011;2015;48.670;9.060;2023-09-30T14:10:56;836.27;;;787.37;;
4001;SDS011;2015;48.670;9.060;2023-09-30T14:13:28;842.40;;;793.00;;
4001;SDS011;2015;48.670;9.060;2023-09-30T14:15:59;856.87;;;806.10;;
4001;SDS011;2015;48.670;9.060;2023-09-30T14:18:32;835.23;;;786.13;;
4001;SDS011;2015;48.670;9.060;2023-09-30T14:21:05;642.90;;;607.30;;
4001;SDS011;2015;48.670;9.060;2023-09-30T14:23:37;889.70;;;838.10;;
4001;SDS011;2015;48.670;9.060;2023-09-30T14:26:10;879.57;;;828.67;;
4001;SDS011;2015;48.670;9.060;2023-09-30T14:28:42;913.20;;;860.43;;
4001;SDS011;2015;48.670;9.060;2023-09-30T14:31:16;933.03;;;877.53;;
4001;SDS011;2015;48.670;9.060;2023-09-30T14:33:48;959.10;;;901.77;;
4001;SDS011;2015;48.670;9.060;2023-09-30T14:36:22;904.97;;;849.05;;
4001;SDS011;2015;48.670;9.060;2023-09-30T14:38:54;926.10;;;872.20;;
4001;SDS011;2015;48.670;9.060;2023-09-30T14:41:42;941.23;;;886.93;;
4001;SDS011;2015;48.670;9.060;2023-09-30T14:44:15;983.20;;;921.80;;
4001;SDS011;2015;48.670;9.060;2023-09-30T14:46:47;967.80;;;905.70;;
4001;SDS011;2015;48.670;9.060;2023-09-30T14:49:19;897.13;;;845.43;;
4001;SDS011;2015;48.670;9.060;2023-09-30T14:51:51;936.17;;;881.87;;
4001;SDS011;2015;48.670;9.060;2023-09-30T14:54:23;742.40;;;694.90;;
4001;SDS011;2015;48.670;9.060;2023-09-30T14:56:55;931.17;;;876.37;;
4001;SDS011;2015;48.670;9.060;2023-09-30T14:59:27;927.07;;;873.30;;
4001;SDS011;2015;48.670;9.060;2023-09-30T15:01:59;900.90;;;848.50;;
4001;SDS011;2015;48.670;9.060;2023-09-30T15:04:31;952.57;;;894.47;;
4001;SDS011;2015;48.670;9.060;2023-09-30T15:07:04;913.77;;;859.47;;
4001;SDS011;2015;48.670;9.060;2023-09-30T15:09:37;887.07;;;835.60;;
4001;SDS011;2015;48.670;9.060;2023-09-30T15:12:12;904.93;;;852.17;;
4001;SDS011;2015;48.670;9.060;2023-09-30T15:14:44;915.03;;;861.30;;
4001;SDS011;2015;48.670;9.060;2023-09-30T15:17:16;923.23;;;861.20;;